createdAt,value
2022-10-09T00:00:25.048Z,78.20
2022-10-09T00:02:56.732Z,78.30
2022-10-09T00:05:28.501Z,78.50
2022-10-09T00:08:00.327Z,78.50
2022-10-09T00:10:32.004Z,78.80
2022-10-09T00:13:04.997Z,79.20
2022-10-09T00:15:37.731Z,79.60
2022-10-09T00:18:10.337Z,79.70
2022-10-09T00:20:42.774Z,79.90
2022-10-09T00:23:16.567Z,80.10
2022-10-09T00:25:52.637Z,80.20
2022-10-09T00:28:27.107Z,80.30
2022-10-09T00:30:59.025Z,80.40
2022-10-09T00:33:30.682Z,80.60
2022-10-09T00:36:02.884Z,80.70
2022-10-09T00:38:35.066Z,81.00
2022-10-09T00:41:06.770Z,82.10
2022-10-09T00:43:44.251Z,81.90
2022-10-09T00:46:27.060Z,82.50
2022-10-09T00:49:01.846Z,81.50
2022-10-09T00:51:34.026Z,81.50
2022-10-09T00:54:07.790Z,82.00
2022-10-09T00:56:39.481Z,86.50
2022-10-09T00:59:12.881Z,87.50
2022-10-09T01:01:44.771Z,89.00
2022-10-09T01:04:16.493Z,84.30
2022-10-09T01:07:03.613Z,84.70
2022-10-09T01:09:39.895Z,90.40
2022-10-09T01:12:16.506Z,88.30
2022-10-09T01:14:56.603Z,89.20
2022-10-09T01:17:30.305Z,90.90
2022-10-09T01:20:16.915Z,91.20
2022-10-09T01:22:55.932Z,91.60
2022-10-09T01:25:32.287Z,95.50
2022-10-09T01:28:06.407Z,90.80
2022-10-09T01:30:38.357Z,93.20
2022-10-09T01:33:11.015Z,90.80
2022-10-09T01:35:43.234Z,91.90
2022-10-09T01:38:15.205Z,92.90
2022-10-09T01:40:46.884Z,95.10
2022-10-09T01:53:36.536Z,99.90
2022-10-09T01:56:11.635Z,99.60
2022-10-09T01:58:47.080Z,99.10
2022-10-09T02:01:21.337Z,96.90
2022-10-09T02:03:54.776Z,95.90
2022-10-09T02:06:27.191Z,98.10
2022-10-09T02:09:01.573Z,99.90
2022-10-09T02:11:33.410Z,98.20
2022-10-09T02:14:05.184Z,99.90
2022-10-09T02:16:37.949Z,96.10
2022-10-09T02:19:11.757Z,94.40
2022-10-09T02:21:46.541Z,94.20
2022-10-09T02:24:21.019Z,95.30
2022-10-09T02:26:53.419Z,96.10
2022-10-09T02:29:25.402Z,91.60
2022-10-09T02:31:57.070Z,91.40
2022-10-09T02:34:28.802Z,92.20
2022-10-09T02:37:00.420Z,92.70
2022-10-09T02:39:33.681Z,94.70
2022-10-09T02:42:05.410Z,94.10
2022-10-09T02:44:37.076Z,94.80
2022-10-09T02:47:08.714Z,96.00
2022-10-09T02:49:40.338Z,98.90
2022-10-09T02:59:52.134Z,99.90
2022-10-09T03:02:27.096Z,97.60
2022-10-09T03:04:59.378Z,96.80
2022-10-09T03:07:31.267Z,97.20
2022-10-09T03:20:21.970Z,99.90
2022-10-09T03:22:53.630Z,99.90
2022-10-09T03:25:25.279Z,98.70
2022-10-09T03:27:56.931Z,97.80
2022-10-09T03:30:28.553Z,99.20
2022-10-09T03:33:00.206Z,99.30
2022-10-09T03:35:33.210Z,99.20
2022-10-09T03:38:04.812Z,99.90
2022-10-09T03:40:36.459Z,99.10
2022-10-09T03:43:08.413Z,99.50
2022-10-09T03:45:40.686Z,98.10
2022-10-09T03:48:12.989Z,94.40
2022-10-09T03:50:45.979Z,96.10
2022-10-09T03:53:17.862Z,99.90
2022-10-09T03:58:23.563Z,99.90
2022-10-09T04:00:55.355Z,97.30
2022-10-09T04:03:27.507Z,99.90
2022-10-09T04:06:00.500Z,99.90
2022-10-09T04:08:32.112Z,99.90
2022-10-09T04:11:03.959Z,99.90
2022-10-09T04:16:12.718Z,99.90
2022-10-09T04:18:44.700Z,95.60
2022-10-09T04:23:50.790Z,99.90
2022-10-09T04:26:22.471Z,99.30
2022-10-09T04:28:54.950Z,96.90
2022-10-09T04:31:26.692Z,99.10
2022-10-09T04:33:58.386Z,99.90
2022-10-09T04:39:04.622Z,99.90
2022-10-09T04:41:38.477Z,99.20
2022-10-09T04:44:10.299Z,99.90
2022-10-09T04:46:41.959Z,99.90
2022-10-09T04:49:13.770Z,99.90
2022-10-09T04:51:45.439Z,98.30
2022-10-09T04:56:50.909Z,99.90
2022-10-09T04:59:22.580Z,99.30
2022-10-09T05:01:54.248Z,99.90
2022-10-09T05:04:25.911Z,99.90
2022-10-09T05:06:57.517Z,99.90
2022-10-09T05:09:29.229Z,99.90
2022-10-09T05:12:02.226Z,99.90
2022-10-09T05:14:33.880Z,99.20
2022-10-09T05:17:14.394Z,99.90
2022-10-09T05:19:46.693Z,99.50
2022-10-09T05:22:18.301Z,99.90
2022-10-09T05:24:49.956Z,99.40
2022-10-09T05:27:23.012Z,99.50
2022-10-09T05:29:54.734Z,99.50
2022-10-09T05:32:26.368Z,99.30
2022-10-09T05:34:58.020Z,99.30
2022-10-09T05:37:29.732Z,99.30
2022-10-09T05:40:01.507Z,99.10
2022-10-09T05:42:34.516Z,98.70
2022-10-09T05:45:08.435Z,98.50
2022-10-09T05:47:40.041Z,97.80
2022-10-09T05:50:11.870Z,97.90
2022-10-09T05:52:43.480Z,98.90
2022-10-09T05:55:15.252Z,99.90
2022-10-09T05:57:50.393Z,99.90
2022-10-09T06:00:22.041Z,99.90
2022-10-09T06:02:53.824Z,99.90
2022-10-09T06:05:25.623Z,99.90
2022-10-09T06:07:57.284Z,99.90
2022-10-09T06:10:32.303Z,99.90
2022-10-09T06:13:05.652Z,99.90
2022-10-09T06:15:37.288Z,99.90
2022-10-09T06:18:08.906Z,99.90
2022-10-09T06:20:40.621Z,99.90
2022-10-09T06:35:59.505Z,99.90
2022-10-09T06:38:36.026Z,99.90
2022-10-09T06:41:08.467Z,99.90
2022-10-09T06:43:40.517Z,99.90
2022-10-09T06:46:12.572Z,99.90
2022-10-09T06:48:44.239Z,99.90
2022-10-09T06:51:18.009Z,99.90
2022-10-09T06:53:50.247Z,99.90
2022-10-09T06:56:22.856Z,99.90
2022-10-09T06:58:54.782Z,99.90
2022-10-09T07:01:27.407Z,99.90
2022-10-09T07:04:00.198Z,99.90
2022-10-09T07:06:33.990Z,99.90
2022-10-09T07:09:06.387Z,99.90
2022-10-09T07:11:39.251Z,99.90
2022-10-09T07:14:12.296Z,99.90
2022-10-09T07:16:44.780Z,99.90
2022-10-09T07:19:17.478Z,99.90
2022-10-09T07:21:50.551Z,99.90
2022-10-09T07:24:24.546Z,99.90
2022-10-09T07:26:57.368Z,99.90
2022-10-09T07:29:29.022Z,99.90
2022-10-09T07:32:00.612Z,99.90
2022-10-09T07:34:32.269Z,99.90
2022-10-09T07:37:05.310Z,99.90
2022-10-09T07:39:38.181Z,99.90
2022-10-09T07:42:11.305Z,99.90
2022-10-09T07:44:42.989Z,99.90
2022-10-09T07:47:14.569Z,99.90
2022-10-09T07:49:46.182Z,99.90
2022-10-09T08:31:55.878Z,99.90
2022-10-09T08:34:27.666Z,99.90
2022-10-09T08:36:59.423Z,99.90
2022-10-09T08:39:32.259Z,99.90
2022-10-09T08:42:05.961Z,99.90
2022-10-09T08:44:39.466Z,99.90
2022-10-09T08:47:16.595Z,99.90
2022-10-09T08:49:50.538Z,99.90
2022-10-09T08:52:25.784Z,99.90
2022-10-09T08:54:59.291Z,99.90
2022-10-09T08:57:32.522Z,99.90
2022-10-09T09:00:06.721Z,99.90
2022-10-09T09:02:48.675Z,99.90
2022-10-09T09:05:28.807Z,99.90
2022-10-09T09:08:02.670Z,99.90
2022-10-09T09:10:41.272Z,99.90
2022-10-09T09:13:19.701Z,99.90
2022-10-09T09:15:57.144Z,99.90
2022-10-09T09:18:42.541Z,99.90
2022-10-09T09:21:24.235Z,99.90
2022-10-09T09:23:58.898Z,99.90
2022-10-09T09:26:30.782Z,99.90
2022-10-09T09:29:04.757Z,99.90
2022-10-09T09:31:37.638Z,99.90
2022-10-09T09:34:14.238Z,99.90
2022-10-09T09:36:49.793Z,99.90
2022-10-09T09:42:18.072Z,99.90
2022-10-09T09:44:56.243Z,99.90
2022-10-09T09:47:34.588Z,99.90
2022-10-09T09:50:23.302Z,99.90
2022-10-09T09:53:06.298Z,99.90
2022-10-09T09:55:38.173Z,99.90
2022-10-09T09:58:17.278Z,99.90
2022-10-09T10:00:57.019Z,99.90
2022-10-09T10:03:29.309Z,99.90
2022-10-09T10:06:03.096Z,99.90
2022-10-09T10:08:35.239Z,99.90
2022-10-09T10:11:07.666Z,99.90
2022-10-09T10:13:47.138Z,99.80
2022-10-09T10:16:23.457Z,99.20
2022-10-09T10:18:57.602Z,98.60
2022-10-09T10:21:40.112Z,97.90
2022-10-09T10:24:15.240Z,97.30
2022-10-09T10:26:51.021Z,96.60
2022-10-09T10:29:29.145Z,95.90
2022-10-09T10:32:07.940Z,95.20
2022-10-09T10:34:45.006Z,94.40
2022-10-09T10:37:38.664Z,93.80
2022-10-09T10:40:17.841Z,93.30
2022-10-09T10:43:16.598Z,93.00
2022-10-09T10:45:59.019Z,92.40
2022-10-09T10:48:33.820Z,92.00
2022-10-09T10:51:15.925Z,91.50
2022-10-09T10:54:02.881Z,90.90
2022-10-09T10:56:38.529Z,90.30
2022-10-09T10:59:26.805Z,90.00
2022-10-09T11:02:16.844Z,89.00
2022-10-09T11:04:57.952Z,87.80
2022-10-09T11:07:36.973Z,86.70
2022-10-09T11:10:20.056Z,85.80
2022-10-09T11:13:00.980Z,84.80
2022-10-09T11:15:45.846Z,84.00
2022-10-09T11:18:35.586Z,83.30
2022-10-09T11:21:20.662Z,82.40
2022-10-09T11:24:37.028Z,81.70
2022-10-09T11:27:17.438Z,81.70
2022-10-09T11:29:53.200Z,81.70
2022-10-09T11:32:30.491Z,81.30
2022-10-09T11:35:05.918Z,80.80
2022-10-09T11:37:39.300Z,80.50
2022-10-09T11:40:14.509Z,79.60
2022-10-09T11:42:54.369Z,80.90
2022-10-09T11:45:35.203Z,78.80
2022-10-09T11:48:16.305Z,76.50
2022-10-09T11:50:56.336Z,75.00
2022-10-09T11:53:31.353Z,73.40
2022-10-09T11:56:04.714Z,71.70
2022-10-09T11:58:37.817Z,69.80
2022-10-09T12:01:24.299Z,67.90
2022-10-09T12:04:06.258Z,65.70
2022-10-09T12:06:48.567Z,64.00
2022-10-09T12:09:24.847Z,62.10
2022-10-09T12:12:03.445Z,60.90
2022-10-09T12:14:38.189Z,59.70
2022-10-09T12:17:17.447Z,58.50
2022-10-09T12:19:53.322Z,57.20
2022-10-09T12:22:31.731Z,55.90
2022-10-09T12:25:12.868Z,54.80
2022-10-09T12:27:45.257Z,53.80
2022-10-09T12:30:21.956Z,53.10
2022-10-09T12:32:58.348Z,52.10
2022-10-09T12:35:34.225Z,51.10
2022-10-09T12:38:16.403Z,50.30
2022-10-09T12:40:48.773Z,49.00
2022-10-09T12:43:23.073Z,48.70
2022-10-09T12:45:56.661Z,48.20
2022-10-09T12:48:35.340Z,47.50
2022-10-09T12:51:15.163Z,47.10
2022-10-09T12:53:48.661Z,46.50
2022-10-09T12:56:23.646Z,46.10
2022-10-09T12:59:15.090Z,45.50
2022-10-09T13:01:50.060Z,45.70
2022-10-09T13:04:30.047Z,44.70
2022-10-09T13:07:06.492Z,44.00
2022-10-09T13:09:40.453Z,43.70
2022-10-09T13:12:17.404Z,43.40
2022-10-09T13:14:55.369Z,42.70
2022-10-09T13:20:24.806Z,41.70
2022-10-09T13:22:58.203Z,41.40
2022-10-09T13:25:35.963Z,41.10
2022-10-09T13:28:08.000Z,40.80
2022-10-09T13:30:39.877Z,40.70
2022-10-09T13:33:16.156Z,40.30
2022-10-09T13:35:48.134Z,39.70
2022-10-09T13:38:20.327Z,39.50
2022-10-09T13:40:52.251Z,39.30
2022-10-09T13:43:26.693Z,39.40
2022-10-09T13:45:58.902Z,39.10
2022-10-09T13:48:32.165Z,38.90
2022-10-09T13:51:05.816Z,38.70
2022-10-09T13:53:38.123Z,38.50
2022-10-09T13:56:09.921Z,38.20
2022-10-09T13:58:41.699Z,38.20
2022-10-09T14:01:13.648Z,38.10
2022-10-09T14:03:46.972Z,38.10
2022-10-09T14:06:18.927Z,38.00
2022-10-09T14:08:50.890Z,37.90
2022-10-09T14:11:22.717Z,37.80
2022-10-09T14:13:54.503Z,37.80
2022-10-09T14:16:26.581Z,37.80
2022-10-09T14:19:01.424Z,37.60
2022-10-09T14:21:33.847Z,37.50
2022-10-09T14:24:06.235Z,37.40
2022-10-09T14:26:38.356Z,37.40
2022-10-09T14:29:10.389Z,37.40
2022-10-09T14:31:42.277Z,37.40
2022-10-09T14:34:15.606Z,37.40
2022-10-09T14:36:47.838Z,37.30
2022-10-09T14:39:19.620Z,37.40
2022-10-09T14:41:51.457Z,37.10
2022-10-09T14:44:23.218Z,37.00
2022-10-09T14:46:54.982Z,37.10
2022-10-09T14:49:28.119Z,37.00
2022-10-09T14:51:59.923Z,37.00
2022-10-09T14:54:31.772Z,37.20
2022-10-09T14:57:03.724Z,37.20
2022-10-09T14:59:35.516Z,37.50
2022-10-09T15:02:07.401Z,37.60
2022-10-09T15:04:40.547Z,37.50
2022-10-09T15:07:12.373Z,37.80
2022-10-09T15:09:44.159Z,38.00
2022-10-09T15:12:15.941Z,38.40
2022-10-09T15:14:47.915Z,38.50
2022-10-09T15:17:19.666Z,38.70
2022-10-09T15:19:53.998Z,38.90
2022-10-09T15:22:25.738Z,39.10
2022-10-09T15:24:57.570Z,39.30
2022-10-09T15:27:29.375Z,39.50
2022-10-09T15:30:01.475Z,39.70
2022-10-09T15:32:33.243Z,40.00
2022-10-09T15:35:07.814Z,40.30
2022-10-09T15:37:39.697Z,40.60
2022-10-09T15:40:11.582Z,40.80
2022-10-09T15:42:44.988Z,41.10
2022-10-09T15:45:16.948Z,41.20
2022-10-09T15:47:51.185Z,41.50
2022-10-09T15:50:24.632Z,41.80
2022-10-09T15:52:57.455Z,42.20
2022-10-09T15:55:29.235Z,42.30
2022-10-09T15:58:01.020Z,42.50
2022-10-09T16:00:35.999Z,42.60
2022-10-09T16:03:08.289Z,43.00
2022-10-09T16:05:43.312Z,43.10
2022-10-09T16:08:16.445Z,43.30
2022-10-09T16:10:49.469Z,43.60
2022-10-09T16:13:21.746Z,43.80
2022-10-09T16:15:53.975Z,43.80
2022-10-09T16:18:25.940Z,44.10
2022-10-09T16:21:03.954Z,44.20
2022-10-09T16:23:36.623Z,44.50
2022-10-09T16:26:08.900Z,44.60
2022-10-09T16:28:40.949Z,44.70
2022-10-09T16:31:18.638Z,45.00
2022-10-09T16:33:51.095Z,45.30
2022-10-09T16:36:24.254Z,45.40
2022-10-09T16:38:56.662Z,45.60
2022-10-09T16:41:28.490Z,45.60
2022-10-09T16:44:00.349Z,46.00
2022-10-09T16:49:06.509Z,46.60
2022-10-09T16:51:39.643Z,46.90
2022-10-09T16:54:11.447Z,47.10
2022-10-09T16:56:43.259Z,47.30
2022-10-09T16:59:15.061Z,47.50
2022-10-09T17:01:49.420Z,47.80
2022-10-09T17:04:21.299Z,47.90
2022-10-09T17:06:54.488Z,48.10
2022-10-09T17:09:26.249Z,48.40
2022-10-09T17:11:57.984Z,48.60
2022-10-09T17:14:29.925Z,48.80
2022-10-09T17:17:01.757Z,49.00
2022-10-09T17:19:33.705Z,49.20
2022-10-09T17:22:07.129Z,49.50
2022-10-09T17:24:39.060Z,49.60
2022-10-09T17:27:10.999Z,49.80
2022-10-09T17:29:43.046Z,49.90
2022-10-09T17:32:15.113Z,50.20
2022-10-09T17:34:47.095Z,50.30
2022-10-09T17:37:20.267Z,50.50
2022-10-09T17:39:52.477Z,50.70
2022-10-09T17:42:24.455Z,50.80
2022-10-09T17:44:56.290Z,51.00
2022-10-09T17:47:28.426Z,51.10
2022-10-09T17:50:00.182Z,51.30
2022-10-09T17:52:33.309Z,51.40
2022-10-09T17:55:06.109Z,51.60
2022-10-09T17:57:37.939Z,51.70
2022-10-09T18:00:11.153Z,51.90
2022-10-09T18:02:43.033Z,52.20
2022-10-09T18:05:15.235Z,52.30
2022-10-09T18:07:48.679Z,52.60
2022-10-09T18:10:21.342Z,52.80
2022-10-09T18:12:53.299Z,52.90
2022-10-09T18:15:25.095Z,53.20
2022-10-09T18:17:57.081Z,53.20
2022-10-09T18:20:30.544Z,53.40
2022-10-09T18:23:04.162Z,53.60
2022-10-09T18:25:40.762Z,53.80
2022-10-09T18:28:12.994Z,54.00
2022-10-09T18:30:47.840Z,54.10
2022-10-09T18:33:19.734Z,54.30
2022-10-09T18:35:51.558Z,54.40
2022-10-09T18:38:24.740Z,54.60
2022-10-09T18:40:56.770Z,54.90
2022-10-09T18:43:28.800Z,55.00
2022-10-09T18:46:00.801Z,55.90
2022-10-09T18:48:36.773Z,56.70
2022-10-09T18:51:14.012Z,57.00
2022-10-09T18:53:51.556Z,57.00
2022-10-09T18:56:23.889Z,56.90
2022-10-09T18:58:55.749Z,56.70
2022-10-09T19:01:27.739Z,56.40
2022-10-09T19:03:59.792Z,56.20
2022-10-09T19:06:31.785Z,55.90
2022-10-09T19:09:05.679Z,55.60
2022-10-09T19:11:38.009Z,55.30
2022-10-09T19:14:09.829Z,55.10
2022-10-09T19:16:41.952Z,55.00
2022-10-09T19:19:14.000Z,54.80
2022-10-09T19:21:45.827Z,54.50
2022-10-09T19:24:18.940Z,54.30
2022-10-09T19:26:50.788Z,54.20
2022-10-09T19:29:23.041Z,54.10
2022-10-09T19:31:55.292Z,54.00
2022-10-09T19:34:27.159Z,53.80
2022-10-09T19:36:59.035Z,53.70
2022-10-09T19:39:32.431Z,53.70
2022-10-09T19:42:04.331Z,53.60
2022-10-09T19:44:37.042Z,53.60
2022-10-09T19:47:08.824Z,53.50
2022-10-09T19:49:40.893Z,53.50
2022-10-09T19:52:12.703Z,53.50
2022-10-09T19:54:45.890Z,53.50
2022-10-09T19:57:17.662Z,53.40
2022-10-09T19:59:49.641Z,53.40
2022-10-09T20:02:21.419Z,53.40
2022-10-09T20:04:53.305Z,53.50
2022-10-09T20:07:25.183Z,53.50
2022-10-09T20:09:58.397Z,53.60
2022-10-09T20:12:30.203Z,53.50
2022-10-09T20:15:02.060Z,53.60
2022-10-09T20:17:34.022Z,53.60
2022-10-09T20:20:06.909Z,53.60
2022-10-09T20:22:38.721Z,53.60
2022-10-09T20:25:11.820Z,53.60
2022-10-09T20:27:43.595Z,53.70
2022-10-09T20:30:15.605Z,53.60
2022-10-09T20:32:49.053Z,53.50
2022-10-09T20:35:21.280Z,53.50
2022-10-09T20:37:53.079Z,53.50
2022-10-09T20:40:26.279Z,53.50
2022-10-09T20:42:58.105Z,53.70
2022-10-09T20:45:29.921Z,53.70
2022-10-09T20:48:01.714Z,53.70
2022-10-09T20:50:36.677Z,53.80
2022-10-09T20:53:10.032Z,53.90
2022-10-09T20:55:43.026Z,54.00
2022-10-09T20:58:14.777Z,53.90
2022-10-09T21:00:46.574Z,54.20
2022-10-09T21:03:18.445Z,53.90
2022-10-09T21:05:50.296Z,53.70
2022-10-09T21:08:22.115Z,53.80
2022-10-09T21:10:55.240Z,54.10
2022-10-09T21:13:27.048Z,54.50
2022-10-09T21:15:58.862Z,54.80
2022-10-09T21:18:30.651Z,55.30
2022-10-09T21:21:05.389Z,55.80
2022-10-09T21:23:37.532Z,56.30
2022-10-09T21:26:14.096Z,56.80
2022-10-09T21:28:46.456Z,57.20
2022-10-09T21:31:20.751Z,57.50
2022-10-09T21:33:52.649Z,57.80
2022-10-09T21:36:32.426Z,58.20
2022-10-09T21:39:05.842Z,58.60
2022-10-09T21:41:39.292Z,58.80
2022-10-09T21:44:11.263Z,58.70
2022-10-09T21:46:43.123Z,59.00
2022-10-09T21:49:19.901Z,59.40
2022-10-09T21:51:52.275Z,59.70
2022-10-09T21:54:24.104Z,60.00
2022-10-09T21:56:57.229Z,60.30
2022-10-09T21:59:29.230Z,60.60
2022-10-09T22:02:01.192Z,60.80
2022-10-09T22:04:33.246Z,61.10
2022-10-09T22:07:05.118Z,61.40
2022-10-09T22:09:36.917Z,61.60
2022-10-09T22:12:10.059Z,61.80
2022-10-09T22:14:41.975Z,62.20
2022-10-09T22:17:13.605Z,62.30
2022-10-09T22:19:45.271Z,62.40
2022-10-09T22:22:16.913Z,62.60
2022-10-09T22:24:48.561Z,62.90
2022-10-09T22:27:21.525Z,63.30
2022-10-09T22:29:53.290Z,63.50
2022-10-09T22:32:24.917Z,64.20
2022-10-09T22:34:56.642Z,64.00
2022-10-09T22:37:28.251Z,64.20
2022-10-09T22:39:59.896Z,64.50
2022-10-09T22:42:33.244Z,64.70
2022-10-09T22:45:05.410Z,64.90
2022-10-09T22:47:37.052Z,64.90
2022-10-09T22:50:09.161Z,65.10
2022-10-09T22:52:40.823Z,65.30
2022-10-09T22:55:12.425Z,65.60
2022-10-09T22:57:45.387Z,65.80
2022-10-09T23:00:17.236Z,66.00
2022-10-09T23:02:49.128Z,66.10
2022-10-09T23:05:23.068Z,66.20
2022-10-09T23:07:54.741Z,66.30
2022-10-09T23:10:26.407Z,66.60
2022-10-09T23:12:59.375Z,66.90
2022-10-09T23:15:31.129Z,67.30
2022-10-09T23:18:03.066Z,67.40
2022-10-09T23:20:35.779Z,67.60
2022-10-09T23:23:07.409Z,67.70
2022-10-09T23:25:39.616Z,67.70
2022-10-09T23:28:12.663Z,68.00
2022-10-09T23:30:44.316Z,68.30
2022-10-09T23:33:15.955Z,68.30
2022-10-09T23:35:47.552Z,68.40
2022-10-09T23:38:19.212Z,68.70
2022-10-09T23:40:54.517Z,69.10
2022-10-09T23:43:27.638Z,69.20
2022-10-09T23:46:00.044Z,69.50
2022-10-09T23:48:31.722Z,69.80
2022-10-09T23:51:05.054Z,70.10
2022-10-09T23:53:36.709Z,70.40
2022-10-09T23:56:14.455Z,70.80
2022-10-09T23:58:47.665Z,71.00
